createdAt,value
2019-03-05T00:01:28.876Z,15.43
2019-03-05T00:03:58.492Z,12.47
2019-03-05T00:06:28.661Z,13.67
2019-03-05T00:08:58.250Z,14.03
2019-03-05T00:11:28.237Z,12.00
2019-03-05T00:13:57.831Z,19.20
2019-03-05T00:16:27.431Z,12.53
2019-03-05T00:18:57.126Z,13.53
2019-03-05T00:21:26.716Z,9.30
2019-03-05T00:24:33.440Z,17.10
2019-03-05T00:27:03.622Z,18.57
2019-03-05T00:30:05.647Z,15.33
2019-03-05T00:32:35.266Z,15.03
2019-03-05T00:35:18.793Z,12.30
2019-03-05T00:38:15.260Z,14.93
2019-03-05T00:40:57.341Z,11.83
2019-03-05T00:43:37.740Z,9.07
2019-03-05T00:46:16.116Z,13.77
2019-03-05T00:49:03.488Z,12.13
2019-03-05T00:52:04.987Z,14.67
2019-03-05T00:54:58.198Z,12.00
2019-03-05T00:58:06.288Z,15.07
2019-03-05T01:00:59.292Z,15.70
2019-03-05T01:03:54.531Z,10.77
2019-03-05T01:06:25.591Z,13.93
2019-03-05T01:08:56.312Z,11.97
2019-03-05T01:11:26.248Z,12.97
2019-03-05T01:13:56.123Z,8.60
2019-03-05T01:16:30.172Z,8.80
2019-03-05T01:18:59.815Z,8.20
2019-03-05T01:21:29.415Z,16.50
2019-03-05T01:23:59.016Z,9.73
2019-03-05T01:26:28.614Z,7.67
2019-03-05T01:28:58.220Z,7.13
2019-03-05T01:31:54.120Z,9.17
2019-03-05T01:34:28.858Z,11.60
2019-03-05T01:37:00.371Z,8.77
2019-03-05T01:39:44.531Z,8.20
2019-03-05T01:42:14.132Z,9.20
2019-03-05T01:44:44.203Z,10.87
2019-03-05T01:47:14.160Z,7.03
2019-03-05T01:49:43.794Z,5.70
2019-03-05T01:52:13.423Z,7.00
2019-03-05T01:54:43.024Z,5.57
2019-03-05T01:57:12.720Z,11.47
2019-03-05T01:59:42.300Z,5.97
2019-03-05T02:02:11.977Z,4.77
2019-03-05T02:04:41.564Z,4.90
2019-03-05T02:07:11.395Z,3.60
2019-03-05T02:09:40.571Z,6.93
2019-03-05T02:12:09.698Z,4.27
2019-03-05T02:14:38.855Z,5.07
2019-03-05T02:17:07.971Z,3.30
2019-03-05T02:19:40.903Z,3.67
2019-03-05T02:22:11.923Z,3.40
2019-03-05T02:25:15.681Z,3.40
2019-03-05T02:27:56.287Z,2.80
2019-03-05T02:30:32.071Z,2.63
2019-03-05T02:33:05.448Z,2.83
2019-03-05T02:35:50.454Z,2.77
2019-03-05T02:38:47.764Z,2.50
2019-03-05T02:41:32.248Z,2.37
2019-03-05T02:44:15.247Z,2.37
2019-03-05T02:46:54.092Z,4.20
2019-03-05T02:49:30.854Z,2.47
2019-03-05T02:52:09.931Z,3.03
2019-03-05T02:54:58.194Z,3.50
2019-03-05T02:57:26.706Z,4.47
2019-03-05T02:59:55.842Z,4.80
2019-03-05T03:02:36.543Z,5.07
2019-03-05T03:05:15.672Z,4.13
2019-03-05T03:07:44.919Z,4.30
2019-03-05T03:10:18.576Z,5.80
2019-03-05T03:12:47.742Z,3.87
2019-03-05T03:15:17.780Z,7.77
2019-03-05T03:17:47.605Z,8.20
2019-03-05T03:20:17.533Z,5.83
2019-03-05T03:22:46.997Z,5.83
2019-03-05T03:25:17.256Z,5.03
2019-03-05T03:27:46.467Z,5.67
2019-03-05T03:30:17.483Z,6.93
2019-03-05T03:32:46.684Z,5.67
2019-03-05T03:35:16.050Z,5.00
2019-03-05T03:37:45.180Z,3.60
2019-03-05T03:40:18.302Z,4.13
2019-03-05T03:42:48.591Z,3.00
2019-03-05T03:45:42.216Z,4.43
2019-03-05T03:48:11.337Z,2.40
2019-03-05T03:50:40.463Z,5.40
2019-03-05T03:53:09.668Z,7.23
2019-03-05T03:55:39.205Z,5.27
2019-03-05T03:58:08.634Z,3.27
2019-03-05T04:00:37.762Z,7.27
2019-03-05T04:03:07.433Z,4.93
2019-03-05T04:05:37.220Z,6.63
2019-03-05T04:08:06.446Z,3.10
2019-03-05T04:10:35.607Z,6.70
2019-03-05T04:13:04.763Z,4.67
2019-03-05T04:15:34.040Z,5.57
2019-03-05T04:18:03.150Z,5.10
2019-03-05T04:20:48.543Z,5.43
2019-03-05T04:23:17.724Z,2.63
2019-03-05T04:25:46.888Z,4.80
2019-03-05T04:28:16.002Z,4.03
2019-03-05T04:30:45.098Z,2.03
2019-03-05T04:33:14.215Z,3.20
2019-03-05T04:35:43.309Z,4.67
2019-03-05T04:38:12.411Z,3.63
2019-03-05T04:40:41.499Z,2.40
2019-03-05T04:43:10.624Z,4.43
2019-03-05T04:45:59.515Z,4.03
2019-03-05T04:48:28.632Z,2.87
2019-03-05T04:51:03.622Z,3.97
2019-03-05T04:53:32.744Z,2.10
2019-03-05T04:56:01.828Z,8.57
2019-03-05T04:58:30.950Z,4.23
2019-03-05T05:01:00.048Z,3.83
2019-03-05T05:03:29.154Z,5.03
2019-03-05T05:05:58.263Z,4.07
2019-03-05T05:08:27.371Z,3.63
2019-03-05T05:10:56.592Z,5.00
2019-03-05T05:13:26.664Z,3.57
2019-03-05T05:15:55.777Z,3.33
2019-03-05T05:18:24.864Z,3.63
2019-03-05T05:20:53.987Z,5.93
2019-03-05T05:23:23.075Z,2.30
2019-03-05T05:25:52.439Z,6.80
2019-03-05T05:28:21.541Z,4.87
2019-03-05T05:30:50.652Z,3.93
2019-03-05T05:33:19.753Z,4.77
2019-03-05T05:35:48.882Z,3.80
2019-03-05T05:38:17.967Z,4.20
2019-03-05T05:40:47.082Z,3.80
2019-03-05T05:43:17.507Z,2.87
2019-03-05T05:45:47.500Z,4.33
2019-03-05T05:48:16.691Z,4.03
2019-03-05T05:50:46.867Z,3.90
2019-03-05T05:53:16.383Z,3.10
2019-03-05T05:55:45.475Z,3.33
2019-03-05T05:58:14.592Z,3.27
2019-03-05T06:00:45.832Z,5.60
2019-03-05T06:03:14.947Z,4.50
2019-03-05T06:05:44.358Z,4.47
2019-03-05T06:08:13.455Z,3.30
2019-03-05T06:10:42.553Z,7.00
2019-03-05T06:13:11.659Z,3.87
2019-03-05T06:15:40.842Z,8.27
2019-03-05T06:18:09.931Z,6.00
2019-03-05T06:20:39.120Z,3.13
2019-03-05T06:23:08.215Z,4.17
2019-03-05T06:25:37.362Z,4.87
2019-03-05T06:28:06.759Z,4.90
2019-03-05T06:30:36.055Z,7.80
2019-03-05T06:33:05.467Z,3.40
2019-03-05T06:35:34.660Z,6.67
2019-03-05T06:38:04.189Z,6.50
2019-03-05T06:40:33.291Z,9.37
2019-03-05T06:43:02.391Z,6.00
2019-03-05T06:45:31.504Z,8.07
2019-03-05T06:48:00.619Z,5.57
2019-03-05T06:50:29.735Z,5.43
2019-03-05T06:52:58.920Z,7.57
2019-03-05T06:55:28.353Z,8.13
2019-03-05T06:57:57.450Z,4.13
2019-03-05T07:00:32.759Z,5.77
2019-03-05T07:03:02.314Z,9.93
2019-03-05T07:05:49.943Z,5.63
2019-03-05T07:08:19.072Z,7.50
2019-03-05T07:10:52.503Z,13.80
2019-03-05T07:13:21.866Z,8.30
2019-03-05T07:16:13.576Z,5.13
2019-03-05T07:18:44.855Z,6.00
2019-03-05T07:21:22.140Z,8.97
2019-03-05T07:24:13.436Z,6.47
2019-03-05T07:26:43.626Z,10.90
2019-03-05T07:29:12.731Z,11.70
2019-03-05T07:31:41.880Z,6.77
2019-03-05T07:34:17.583Z,4.57
2019-03-05T07:36:46.776Z,9.70
2019-03-05T07:39:19.461Z,9.73
2019-03-05T07:41:48.643Z,5.53
2019-03-05T07:44:17.739Z,6.33
2019-03-05T07:46:46.836Z,4.97
2019-03-05T07:49:16.009Z,9.30
2019-03-05T07:51:45.199Z,12.10
2019-03-05T07:54:14.301Z,9.43
2019-03-05T07:56:43.402Z,7.50
2019-03-05T07:59:12.831Z,6.97
2019-03-05T08:01:41.935Z,8.23
2019-03-05T08:04:11.048Z,9.40
2019-03-05T08:06:40.140Z,8.17
2019-03-05T08:09:27.536Z,7.57
2019-03-05T08:11:58.217Z,7.53
2019-03-05T08:14:46.169Z,11.30
2019-03-05T08:17:15.276Z,10.73
2019-03-05T08:19:44.392Z,7.80
2019-03-05T08:22:13.564Z,9.30
2019-03-05T08:24:42.680Z,6.40
2019-03-05T08:27:12.016Z,6.37
2019-03-05T08:29:43.115Z,8.87
2019-03-05T08:32:13.259Z,7.80
2019-03-05T08:34:42.647Z,8.50
2019-03-05T08:37:13.440Z,10.17
2019-03-05T08:39:42.877Z,5.77
2019-03-05T08:42:11.972Z,9.40
2019-03-05T08:44:50.051Z,5.50
2019-03-05T08:47:11.865Z,6.57
2019-03-05T08:49:40.971Z,12.10
2019-03-05T08:52:10.075Z,13.37
2019-03-05T08:54:39.198Z,8.13
2019-03-05T08:57:08.307Z,11.47
2019-03-05T08:59:37.478Z,12.50
2019-03-05T09:02:06.780Z,8.63
2019-03-05T09:04:35.896Z,7.03
2019-03-05T09:07:05.028Z,12.40
2019-03-05T09:09:35.224Z,10.83
2019-03-05T09:12:04.666Z,8.17
2019-03-05T09:14:34.594Z,7.23
2019-03-05T09:17:04.376Z,9.93
2019-03-05T09:19:33.735Z,10.10
2019-03-05T09:22:02.850Z,7.17
2019-03-05T09:24:31.948Z,7.43
2019-03-05T09:27:01.244Z,10.13
2019-03-05T09:29:30.335Z,7.40
2019-03-05T09:31:59.434Z,4.13
2019-03-05T09:34:28.651Z,7.73
2019-03-05T09:36:57.745Z,4.83
2019-03-05T09:39:26.848Z,6.57
2019-03-05T09:41:55.973Z,5.80
2019-03-05T09:44:25.102Z,8.27
2019-03-05T09:46:54.182Z,8.17
2019-03-05T09:49:23.283Z,7.17
2019-03-05T09:51:52.366Z,8.83
2019-03-05T09:54:21.479Z,5.80
2019-03-05T09:56:50.572Z,6.63
2019-03-05T09:59:19.677Z,6.00
2019-03-05T10:01:51.610Z,9.13
2019-03-05T10:04:20.787Z,4.97
2019-03-05T10:06:49.875Z,4.57
2019-03-05T10:09:19.229Z,8.20
2019-03-05T10:11:48.499Z,6.40
2019-03-05T10:14:17.607Z,5.60
2019-03-05T10:16:46.717Z,6.13
2019-03-05T10:19:15.818Z,5.40
2019-03-05T10:21:46.447Z,4.77
2019-03-05T10:24:15.868Z,5.03
2019-03-05T10:26:45.152Z,7.93
2019-03-05T10:29:14.331Z,4.43
2019-03-05T10:31:43.760Z,5.50
2019-03-05T10:34:13.135Z,10.50
2019-03-05T10:36:42.321Z,8.90
2019-03-05T10:39:29.864Z,4.83
2019-03-05T10:41:52.921Z,3.93
2019-03-05T10:44:22.029Z,2.90
2019-03-05T10:46:51.152Z,2.90
2019-03-05T10:49:21.979Z,6.00
2019-03-05T10:51:51.078Z,4.23
2019-03-05T10:54:20.198Z,4.50
2019-03-05T10:56:49.539Z,6.47
2019-03-05T10:59:18.650Z,2.80
2019-03-05T11:01:48.269Z,2.83
2019-03-05T11:04:20.730Z,4.03
2019-03-05T11:06:52.815Z,9.40
2019-03-05T11:09:22.508Z,3.87
2019-03-05T11:11:51.604Z,4.50
2019-03-05T11:14:20.720Z,3.30
2019-03-05T11:16:50.188Z,2.83
2019-03-05T11:19:19.301Z,4.43
2019-03-05T11:21:48.392Z,2.57
2019-03-05T11:24:17.520Z,1.80
2019-03-05T11:26:46.601Z,6.80
2019-03-05T11:29:15.791Z,3.77
2019-03-05T11:31:45.127Z,3.00
2019-03-05T11:34:14.220Z,3.77
2019-03-05T11:36:43.663Z,2.20
2019-03-05T11:39:13.359Z,5.33
2019-03-05T11:41:43.846Z,1.90
2019-03-05T11:44:13.203Z,2.43
2019-03-05T11:46:42.462Z,1.63
2019-03-05T11:49:12.104Z,2.00
2019-03-05T11:51:41.224Z,1.87
2019-03-05T11:54:10.318Z,4.20
2019-03-05T11:56:39.452Z,2.57
2019-03-05T11:59:08.811Z,3.50
2019-03-05T12:01:46.988Z,2.03
2019-03-05T12:04:16.097Z,2.53
2019-03-05T12:06:45.219Z,2.33
2019-03-05T12:09:14.319Z,1.93
2019-03-05T12:11:43.516Z,1.90
2019-03-05T12:14:12.621Z,2.20
2019-03-05T12:16:41.975Z,1.40
2019-03-05T12:19:11.093Z,2.87
2019-03-05T12:21:40.262Z,5.30
2019-03-05T12:24:09.360Z,1.27
2019-03-05T12:26:38.464Z,1.13
2019-03-05T12:29:07.572Z,1.30
2019-03-05T12:31:37.886Z,1.27
2019-03-05T12:34:07.008Z,1.13
2019-03-05T12:36:36.102Z,1.70
2019-03-05T12:39:06.255Z,2.20
2019-03-05T12:41:36.976Z,2.53
2019-03-05T12:44:06.364Z,2.20
2019-03-05T12:46:35.460Z,3.17
2019-03-05T12:49:04.667Z,1.93
2019-03-05T12:51:33.767Z,2.37
2019-03-05T12:54:03.127Z,1.57
2019-03-05T12:56:32.243Z,3.23
2019-03-05T12:59:01.339Z,1.60
2019-03-05T13:01:30.451Z,2.20
2019-03-05T13:03:59.536Z,1.80
2019-03-05T13:06:28.662Z,1.70
2019-03-05T13:08:58.343Z,2.20
2019-03-05T13:11:27.447Z,2.80
2019-03-05T13:14:05.687Z,2.93
2019-03-05T13:16:27.685Z,1.20
2019-03-05T13:18:58.338Z,0.90
2019-03-05T13:21:27.691Z,1.07
2019-03-05T13:23:56.806Z,1.23
2019-03-05T13:26:25.917Z,1.00
2019-03-05T13:28:55.012Z,1.40
2019-03-05T13:31:24.135Z,2.10
2019-03-05T13:33:53.229Z,2.83
2019-03-05T13:36:22.325Z,4.03
2019-03-05T13:38:51.447Z,1.33
2019-03-05T13:41:20.547Z,6.80
2019-03-05T13:43:52.130Z,2.40
2019-03-05T13:46:21.866Z,1.90
2019-03-05T13:49:01.334Z,1.27
2019-03-05T13:51:48.538Z,11.93
2019-03-05T13:54:29.216Z,4.57
2019-03-05T13:57:18.542Z,3.40
2019-03-05T13:59:49.419Z,6.10
2019-03-05T14:02:19.868Z,2.93
2019-03-05T14:04:52.583Z,2.47
2019-03-05T14:07:43.777Z,3.40
2019-03-05T14:10:12.989Z,3.70
2019-03-05T14:12:42.129Z,7.87
2019-03-05T14:15:11.397Z,3.83
2019-03-05T14:17:42.683Z,2.40
2019-03-05T14:20:13.202Z,4.13
2019-03-05T14:22:42.307Z,5.53
2019-03-05T14:25:12.023Z,9.90
2019-03-05T14:27:41.307Z,3.97
2019-03-05T14:30:12.326Z,6.20
2019-03-05T14:32:41.684Z,6.33
2019-03-05T14:35:14.915Z,5.90
2019-03-05T14:37:44.336Z,5.17
2019-03-05T14:40:24.145Z,8.30
2019-03-05T14:42:45.718Z,6.90
2019-03-05T14:45:22.473Z,6.17
2019-03-05T14:47:52.367Z,7.43
2019-03-05T14:50:21.868Z,9.77
2019-03-05T14:52:51.210Z,13.90
2019-03-05T14:55:20.846Z,8.63
2019-03-05T14:57:50.368Z,12.83
2019-03-05T15:00:20.713Z,15.77
2019-03-05T15:02:49.926Z,5.80
2019-03-05T15:05:19.206Z,6.87
2019-03-05T15:07:48.541Z,7.07
2019-03-05T15:10:17.822Z,6.03
2019-03-05T15:12:47.130Z,8.10
2019-03-05T15:15:23.898Z,7.20
2019-03-05T15:17:53.134Z,11.10
2019-03-05T15:20:22.339Z,7.67
2019-03-05T15:22:51.498Z,8.33
2019-03-05T15:25:21.019Z,5.60
2019-03-05T15:27:50.319Z,14.67
2019-03-05T15:30:20.038Z,6.87
2019-03-05T15:32:49.236Z,8.57
2019-03-05T15:35:18.643Z,6.33
2019-03-05T15:37:47.833Z,9.47
2019-03-05T15:40:17.025Z,10.13
2019-03-05T15:42:46.240Z,10.77
2019-03-05T15:45:16.033Z,11.23
2019-03-05T15:47:45.174Z,9.87
2019-03-05T15:50:15.490Z,9.17
2019-03-05T15:52:44.682Z,13.47
2019-03-05T15:55:13.911Z,12.03
2019-03-05T15:57:43.009Z,11.90
2019-03-05T16:00:23.579Z,8.60
2019-03-05T16:02:52.835Z,9.43
2019-03-05T16:05:22.205Z,12.83
2019-03-05T16:07:51.661Z,17.90
2019-03-05T16:10:20.886Z,8.47
2019-03-05T16:12:49.983Z,13.53
2019-03-05T16:15:19.177Z,6.90
2019-03-05T16:17:48.753Z,11.20
2019-03-05T16:20:17.964Z,8.20
2019-03-05T16:22:50.962Z,9.23
2019-03-05T16:25:18.364Z,13.90
2019-03-05T16:27:47.527Z,7.53
2019-03-05T16:30:36.306Z,7.07
2019-03-05T16:33:36.957Z,5.77
2019-03-05T16:36:29.207Z,10.30
2019-03-05T16:39:14.657Z,8.40
2019-03-05T16:42:05.098Z,5.80
2019-03-05T16:44:57.600Z,9.43
2019-03-05T16:47:49.486Z,7.10
2019-03-05T16:50:33.908Z,9.37
2019-03-05T16:53:16.236Z,11.00
2019-03-05T16:55:58.031Z,5.10
2019-03-05T16:58:52.508Z,7.93
2019-03-05T17:01:33.682Z,7.13
2019-03-05T17:04:20.999Z,15.70
2019-03-05T17:07:27.883Z,7.70
2019-03-05T17:10:18.154Z,5.03
2019-03-05T17:12:47.535Z,4.07
2019-03-05T17:15:16.977Z,7.30
2019-03-05T17:17:46.169Z,7.23
2019-03-05T17:20:15.596Z,6.20
2019-03-05T17:22:44.724Z,10.10
2019-03-05T17:25:14.956Z,3.90
2019-03-05T17:27:44.139Z,9.27
2019-03-05T17:30:14.143Z,9.90
2019-03-05T17:32:43.608Z,4.97
2019-03-05T17:35:12.791Z,4.67
2019-03-05T17:37:42.384Z,5.77
2019-03-05T17:40:11.732Z,4.27
2019-03-05T17:42:41.021Z,10.77
2019-03-05T17:45:12.798Z,5.03
2019-03-05T17:47:42.264Z,11.03
2019-03-05T17:50:11.668Z,5.13
2019-03-05T17:52:41.059Z,6.50
2019-03-05T17:55:11.180Z,6.50
2019-03-05T17:57:40.477Z,4.77
2019-03-05T18:00:10.750Z,7.20
2019-03-05T18:02:41.332Z,6.33
2019-03-05T18:05:11.681Z,7.37
2019-03-05T18:07:40.882Z,12.93
2019-03-05T18:10:10.202Z,4.50
2019-03-05T18:12:40.145Z,4.70
2019-03-05T18:15:09.777Z,6.10
2019-03-05T18:17:40.184Z,11.20
2019-03-05T18:20:10.315Z,13.37
2019-03-05T18:22:39.994Z,9.40
2019-03-05T18:25:09.596Z,14.23
2019-03-05T18:27:39.385Z,15.47
2019-03-05T18:30:10.367Z,7.50
2019-03-05T18:32:40.049Z,10.90
2019-03-05T18:35:09.286Z,7.27
2019-03-05T18:37:38.759Z,8.23
2019-03-05T18:40:08.925Z,8.90
2019-03-05T18:42:38.341Z,4.90
2019-03-05T18:45:08.732Z,11.90
2019-03-05T18:47:38.219Z,6.90
2019-03-05T18:50:07.835Z,9.27
2019-03-05T18:52:36.976Z,7.93
2019-03-05T18:55:07.228Z,10.50
2019-03-05T18:57:36.432Z,6.43
2019-03-05T19:00:06.248Z,4.90
2019-03-05T19:02:37.027Z,9.23
2019-03-05T19:05:06.527Z,11.87
2019-03-05T19:07:35.831Z,6.60
2019-03-05T19:10:06.132Z,17.60
2019-03-05T19:12:35.533Z,9.03
2019-03-05T19:15:05.239Z,6.87
2019-03-05T19:17:35.935Z,5.93
2019-03-05T19:20:05.411Z,9.03
2019-03-05T19:22:35.093Z,11.87
2019-03-05T19:25:04.427Z,9.30
2019-03-05T19:27:33.563Z,8.37
2019-03-05T19:30:02.795Z,7.60
2019-03-05T19:32:33.603Z,10.80
2019-03-05T19:35:02.732Z,5.87
2019-03-05T19:37:32.180Z,10.20
2019-03-05T19:40:01.320Z,12.63
2019-03-05T19:42:30.724Z,5.10
2019-03-05T19:44:59.890Z,7.00
2019-03-05T19:47:29.037Z,5.47
2019-03-05T19:49:58.167Z,7.50
2019-03-05T19:52:27.303Z,3.00
2019-03-05T19:54:56.439Z,8.80
2019-03-05T19:57:25.633Z,5.60
2019-03-05T19:59:54.759Z,9.20
2019-03-05T20:02:24.156Z,7.40
2019-03-05T20:04:53.583Z,13.37
2019-03-05T20:07:23.134Z,8.33
2019-03-05T20:09:52.905Z,6.93
2019-03-05T20:12:22.047Z,6.50
2019-03-05T20:14:51.188Z,7.83
2019-03-05T20:17:20.306Z,9.83
2019-03-05T20:19:49.436Z,5.77
2019-03-05T20:22:18.836Z,14.47
2019-03-05T20:24:47.987Z,6.53
2019-03-05T20:27:17.094Z,6.00
2019-03-05T20:29:46.391Z,7.53
2019-03-05T20:32:15.518Z,9.17
2019-03-05T20:34:46.640Z,3.30
2019-03-05T20:37:15.835Z,12.10
2019-03-05T20:39:45.204Z,9.40
2019-03-05T20:42:14.400Z,5.07
2019-03-05T20:44:43.615Z,6.40
2019-03-05T20:47:12.986Z,5.30
2019-03-05T20:49:42.312Z,8.73
2019-03-05T20:52:11.599Z,14.50
2019-03-05T20:54:41.896Z,8.27
2019-03-05T20:57:11.004Z,7.97
2019-03-05T20:59:40.127Z,7.60
2019-03-05T21:02:09.300Z,7.17
2019-03-05T21:04:38.425Z,8.33
2019-03-05T21:07:07.596Z,10.20
2019-03-05T21:09:36.745Z,8.10
2019-03-05T21:12:05.891Z,5.03
2019-03-05T21:14:35.080Z,8.00
2019-03-05T21:17:04.187Z,4.93
2019-03-05T21:19:33.312Z,8.63
2019-03-05T21:22:03.648Z,7.13
2019-03-05T21:24:32.777Z,4.93
2019-03-05T21:27:01.899Z,7.20
2019-03-05T21:29:31.032Z,6.73
2019-03-05T21:32:00.163Z,7.03
2019-03-05T21:34:29.828Z,6.90
2019-03-05T21:36:58.923Z,7.33
2019-03-05T21:39:28.035Z,4.83
2019-03-05T21:41:57.308Z,11.30
2019-03-05T21:44:26.424Z,9.33
2019-03-05T21:46:55.857Z,7.57
2019-03-05T21:49:24.950Z,6.23
2019-03-05T21:51:54.068Z,4.43
2019-03-05T21:54:23.257Z,8.17
2019-03-05T21:56:52.381Z,5.93
2019-03-05T21:59:21.668Z,6.00
2019-03-05T22:01:50.760Z,7.80
2019-03-05T22:04:20.051Z,13.27
2019-03-05T22:06:49.475Z,4.97
2019-03-05T22:09:18.611Z,6.10
2019-03-05T22:11:47.907Z,6.67
2019-03-05T22:14:18.088Z,6.20
2019-03-05T22:16:48.420Z,8.80
2019-03-05T22:19:17.607Z,4.90
2019-03-05T22:21:46.706Z,7.10
2019-03-05T22:24:15.807Z,8.00
2019-03-05T22:26:44.906Z,7.87
2019-03-05T22:29:15.668Z,6.93
2019-03-05T22:31:44.755Z,10.80
2019-03-05T22:34:14.372Z,10.60
2019-03-05T22:36:43.551Z,8.53
2019-03-05T22:39:12.658Z,7.17
2019-03-05T22:41:42.146Z,5.27
2019-03-05T22:44:11.243Z,5.07
2019-03-05T22:46:40.899Z,4.00
2019-03-05T22:49:09.991Z,5.50
2019-03-05T22:51:39.115Z,6.67
2019-03-05T22:54:08.211Z,5.60
2019-03-05T22:56:37.517Z,6.43
2019-03-05T22:59:06.899Z,4.80
2019-03-05T23:01:37.332Z,6.00
2019-03-05T23:04:07.332Z,6.13
2019-03-05T23:06:36.855Z,12.97
2019-03-05T23:09:13.624Z,7.70
2019-03-05T23:11:43.207Z,8.60
2019-03-05T23:14:12.532Z,6.00
2019-03-05T23:16:41.701Z,4.67
2019-03-05T23:19:12.409Z,5.43
2019-03-05T23:21:42.017Z,8.20
2019-03-05T23:24:12.177Z,7.43
2019-03-05T23:26:41.335Z,11.83
2019-03-05T23:29:10.657Z,9.13
2019-03-05T23:31:40.020Z,6.40
2019-03-05T23:34:17.875Z,12.43
2019-03-05T23:36:39.947Z,11.80
2019-03-05T23:39:10.712Z,8.60
2019-03-05T23:41:41.447Z,9.57
2019-03-05T23:44:10.820Z,10.40
2019-03-05T23:46:40.224Z,9.30
2019-03-05T23:49:09.327Z,6.70
2019-03-05T23:51:38.480Z,11.63
2019-03-05T23:54:07.575Z,10.43
2019-03-05T23:56:37.032Z,9.47
2019-03-05T23:59:06.118Z,7.20
